sensor_id;sensor_type;location;lat;lon;timestamp;P1;durP1;ratioP1;P2;durP2;ratioP2
40623;SDS011;26325;48.594;11.650;2023-07-08T00:00:40;4.47;;;4.07;;
40623;SDS011;26325;48.594;11.650;2023-07-08T00:03:10;6.82;;;4.85;;
40623;SDS011;26325;48.594;11.650;2023-07-08T00:05:37;4.30;;;3.90;;
40623;SDS011;26325;48.594;11.650;2023-07-08T00:08:05;5.40;;;4.90;;
40623;SDS011;26325;48.594;11.650;2023-07-08T00:12:57;4.95;;;4.50;;
40623;SDS011;26325;48.594;11.650;2023-07-08T00:15:28;4.72;;;4.22;;
40623;SDS011;26325;48.594;11.650;2023-07-08T00:17:55;5.15;;;4.75;;
40623;SDS011;26325;48.594;11.650;2023-07-08T00:23:04;6.75;;;4.60;;
40623;SDS011;26325;48.594;11.650;2023-07-08T00:25:31;4.55;;;4.18;;
40623;SDS011;26325;48.594;11.650;2023-07-08T00:28:00;4.43;;;4.03;;
40623;SDS011;26325;48.594;11.650;2023-07-08T00:30:30;4.45;;;4.15;;
40623;SDS011;26325;48.594;11.650;2023-07-08T00:32:58;3.97;;;3.60;;
40623;SDS011;26325;48.594;11.650;2023-07-08T00:35:33;4.35;;;3.95;;
40623;SDS011;26325;48.594;11.650;2023-07-08T00:38:19;4.75;;;4.32;;
40623;SDS011;26325;48.594;11.650;2023-07-08T00:40:58;4.85;;;4.43;;
40623;SDS011;26325;48.594;11.650;2023-07-08T00:51:53;4.65;;;4.03;;
40623;SDS011;26325;48.594;11.650;2023-07-08T00:54:20;5.07;;;4.60;;
40623;SDS011;26325;48.594;11.650;2023-07-08T00:56:52;4.53;;;4.15;;
40623;SDS011;26325;48.594;11.650;2023-07-08T00:59:28;4.80;;;4.40;;
40623;SDS011;26325;48.594;11.650;2023-07-08T01:01:59;4.70;;;4.30;;
40623;SDS011;26325;48.594;11.650;2023-07-08T01:04:56;4.63;;;4.22;;
40623;SDS011;26325;48.594;11.650;2023-07-08T01:07:25;4.45;;;4.05;;
40623;SDS011;26325;48.594;11.650;2023-07-08T01:10:01;5.05;;;4.50;;
40623;SDS011;26325;48.594;11.650;2023-07-08T01:12:38;4.30;;;3.90;;
40623;SDS011;26325;48.594;11.650;2023-07-08T01:15:07;5.15;;;4.25;;
40623;SDS011;26325;48.594;11.650;2023-07-08T01:17:33;4.72;;;4.20;;
40623;SDS011;26325;48.594;11.650;2023-07-08T01:20:03;4.85;;;4.40;;
40623;SDS011;26325;48.594;11.650;2023-07-08T01:22:36;4.45;;;4.05;;
40623;SDS011;26325;48.594;11.650;2023-07-08T01:25:03;4.28;;;3.92;;
40623;SDS011;26325;48.594;11.650;2023-07-08T01:27:34;4.53;;;4.10;;
40623;SDS011;26325;48.594;11.650;2023-07-08T01:30:04;4.78;;;4.30;;
40623;SDS011;26325;48.594;11.650;2023-07-08T01:32:32;4.82;;;4.43;;
40623;SDS011;26325;48.594;11.650;2023-07-08T01:35:04;4.38;;;4.03;;
40623;SDS011;26325;48.594;11.650;2023-07-08T01:37:38;4.70;;;4.30;;
40623;SDS011;26325;48.594;11.650;2023-07-08T01:40:36;4.68;;;4.28;;
40623;SDS011;26325;48.594;11.650;2023-07-08T01:43:04;5.05;;;4.35;;
40623;SDS011;26325;48.594;11.650;2023-07-08T01:45:34;4.82;;;4.40;;
40623;SDS011;26325;48.594;11.650;2023-07-08T01:48:15;5.22;;;4.57;;
40623;SDS011;26325;48.594;11.650;2023-07-08T01:50:47;4.63;;;4.22;;
40623;SDS011;26325;48.594;11.650;2023-07-08T01:53:22;4.63;;;4.10;;
40623;SDS011;26325;48.594;11.650;2023-07-08T01:55:49;4.68;;;4.28;;
40623;SDS011;26325;48.594;11.650;2023-07-08T01:58:14;4.50;;;4.10;;
40623;SDS011;26325;48.594;11.650;2023-07-08T02:03:08;4.78;;;4.30;;
40623;SDS011;26325;48.594;11.650;2023-07-08T02:05:36;4.55;;;4.15;;
40623;SDS011;26325;48.594;11.650;2023-07-08T02:08:04;4.65;;;4.25;;
40623;SDS011;26325;48.594;11.650;2023-07-08T02:12:55;4.88;;;4.25;;
40623;SDS011;26325;48.594;11.650;2023-07-08T02:17:47;4.67;;;4.27;;
40623;SDS011;26325;48.594;11.650;2023-07-08T02:20:15;4.63;;;4.22;;
40623;SDS011;26325;48.594;11.650;2023-07-08T02:22:44;4.63;;;4.22;;
40623;SDS011;26325;48.594;11.650;2023-07-08T02:25:10;4.95;;;4.45;;
40623;SDS011;26325;48.594;11.650;2023-07-08T02:30:03;4.15;;;3.85;;
40623;SDS011;26325;48.594;11.650;2023-07-08T02:32:32;4.85;;;4.45;;
40623;SDS011;26325;48.594;11.650;2023-07-08T02:35:02;4.82;;;4.43;;
40623;SDS011;26325;48.594;11.650;2023-07-08T02:37:29;4.78;;;4.38;;
40623;SDS011;26325;48.594;11.650;2023-07-08T02:40:03;4.70;;;4.30;;
40623;SDS011;26325;48.594;11.650;2023-07-08T02:42:29;4.60;;;4.20;;
40623;SDS011;26325;48.594;11.650;2023-07-08T02:47:25;4.78;;;4.38;;
40623;SDS011;26325;48.594;11.650;2023-07-08T02:49:51;4.93;;;4.43;;
40623;SDS011;26325;48.594;11.650;2023-07-08T02:52:21;4.28;;;3.97;;
40623;SDS011;26325;48.594;11.650;2023-07-08T02:54:50;4.32;;;4.03;;
40623;SDS011;26325;48.594;11.650;2023-07-08T02:59:44;4.57;;;4.17;;
40623;SDS011;26325;48.594;11.650;2023-07-08T03:02:09;4.45;;;4.05;;
40623;SDS011;26325;48.594;11.650;2023-07-08T03:04:37;4.53;;;4.22;;
40623;SDS011;26325;48.594;11.650;2023-07-08T03:07:10;4.68;;;4.28;;
40623;SDS011;26325;48.594;11.650;2023-07-08T03:09:42;4.63;;;4.22;;
40623;SDS011;26325;48.594;11.650;2023-07-08T03:12:10;4.53;;;4.10;;
40623;SDS011;26325;48.594;11.650;2023-07-08T03:14:36;5.28;;;4.78;;
40623;SDS011;26325;48.594;11.650;2023-07-08T03:19:38;4.85;;;4.45;;
40623;SDS011;26325;48.594;11.650;2023-07-08T03:22:04;4.55;;;4.15;;
40623;SDS011;26325;48.594;11.650;2023-07-08T03:24:37;5.00;;;4.60;;
40623;SDS011;26325;48.594;11.650;2023-07-08T03:27:10;4.22;;;3.92;;
40623;SDS011;26325;48.594;11.650;2023-07-08T03:32:02;4.85;;;4.45;;
40623;SDS011;26325;48.594;11.650;2023-07-08T03:34:31;5.65;;;4.97;;
40623;SDS011;26325;48.594;11.650;2023-07-08T03:36:57;4.40;;;4.10;;
40623;SDS011;26325;48.594;11.650;2023-07-08T03:39:25;4.70;;;4.30;;
40623;SDS011;26325;48.594;11.650;2023-07-08T03:41:52;5.07;;;4.68;;
40623;SDS011;26325;48.594;11.650;2023-07-08T03:44:18;4.70;;;4.30;;
40623;SDS011;26325;48.594;11.650;2023-07-08T03:46:45;5.20;;;4.70;;
40623;SDS011;26325;48.594;11.650;2023-07-08T03:49:13;4.82;;;4.25;;
40623;SDS011;26325;48.594;11.650;2023-07-08T03:51:41;5.15;;;4.25;;
40623;SDS011;26325;48.594;11.650;2023-07-08T03:54:12;4.47;;;4.07;;
40623;SDS011;26325;48.594;11.650;2023-07-08T03:56:39;5.30;;;4.80;;
40623;SDS011;26325;48.594;11.650;2023-07-08T03:59:12;4.68;;;4.28;;
40623;SDS011;26325;48.594;11.650;2023-07-08T04:01:37;4.95;;;4.55;;
40623;SDS011;26325;48.594;11.650;2023-07-08T04:04:10;4.70;;;4.30;;
40623;SDS011;26325;48.594;11.650;2023-07-08T04:06:43;4.90;;;4.45;;
40623;SDS011;26325;48.594;11.650;2023-07-08T04:09:11;5.18;;;4.18;;
40623;SDS011;26325;48.594;11.650;2023-07-08T04:14:03;4.40;;;4.10;;
40623;SDS011;26325;48.594;11.650;2023-07-08T04:16:50;4.65;;;4.20;;
40623;SDS011;26325;48.594;11.650;2023-07-08T04:19:19;4.85;;;4.45;;
40623;SDS011;26325;48.594;11.650;2023-07-08T04:21:47;5.53;;;5.03;;
40623;SDS011;26325;48.594;11.650;2023-07-08T04:26:43;5.63;;;5.13;;
40623;SDS011;26325;48.594;11.650;2023-07-08T04:29:18;4.80;;;4.40;;
40623;SDS011;26325;48.594;11.650;2023-07-08T04:31:48;4.50;;;4.10;;
40623;SDS011;26325;48.594;11.650;2023-07-08T04:34:16;5.03;;;4.55;;
40623;SDS011;26325;48.594;11.650;2023-07-08T04:36:42;4.63;;;4.22;;
40623;SDS011;26325;48.594;11.650;2023-07-08T04:39:09;5.15;;;4.65;;
40623;SDS011;26325;48.594;11.650;2023-07-08T04:41:38;4.85;;;4.45;;
40623;SDS011;26325;48.594;11.650;2023-07-08T04:44:12;4.90;;;4.50;;
40623;SDS011;26325;48.594;11.650;2023-07-08T04:46:45;6.72;;;4.40;;
40623;SDS011;26325;48.594;11.650;2023-07-08T04:49:16;4.75;;;4.35;;
40623;SDS011;26325;48.594;11.650;2023-07-08T04:51:43;5.07;;;4.60;;
40623;SDS011;26325;48.594;11.650;2023-07-08T04:54:09;4.85;;;4.40;;
40623;SDS011;26325;48.594;11.650;2023-07-08T04:56:43;5.45;;;5.05;;
40623;SDS011;26325;48.594;11.650;2023-07-08T04:59:13;5.33;;;4.57;;
40623;SDS011;26325;48.594;11.650;2023-07-08T05:01:43;4.85;;;4.35;;
40623;SDS011;26325;48.594;11.650;2023-07-08T05:04:13;5.53;;;4.90;;
40623;SDS011;26325;48.594;11.650;2023-07-08T05:06:39;5.10;;;4.70;;
40623;SDS011;26325;48.594;11.650;2023-07-08T05:09:06;5.07;;;4.68;;
40623;SDS011;26325;48.594;11.650;2023-07-08T05:11:33;5.13;;;4.68;;
40623;SDS011;26325;48.594;11.650;2023-07-08T05:14:00;5.05;;;4.55;;
40623;SDS011;26325;48.594;11.650;2023-07-08T05:16:29;5.47;;;4.97;;
40623;SDS011;26325;48.594;11.650;2023-07-08T05:18:55;4.90;;;4.60;;
40623;SDS011;26325;48.594;11.650;2023-07-08T05:21:23;5.65;;;5.15;;
40623;SDS011;26325;48.594;11.650;2023-07-08T05:23:50;5.55;;;5.05;;
40623;SDS011;26325;48.594;11.650;2023-07-08T05:26:16;5.40;;;4.90;;
40623;SDS011;26325;48.594;11.650;2023-07-08T05:28:42;5.97;;;4.95;;
40623;SDS011;26325;48.594;11.650;2023-07-08T05:31:08;5.63;;;4.90;;
40623;SDS011;26325;48.594;11.650;2023-07-08T05:35:59;4.75;;;4.35;;
40623;SDS011;26325;48.594;11.650;2023-07-08T05:38:25;4.40;;;4.10;;
40623;SDS011;26325;48.594;11.650;2023-07-08T05:40:56;4.72;;;4.40;;
40623;SDS011;26325;48.594;11.650;2023-07-08T05:43:23;4.60;;;4.20;;
40623;SDS011;26325;48.594;11.650;2023-07-08T05:45:56;5.00;;;4.60;;
40623;SDS011;26325;48.594;11.650;2023-07-08T05:48:25;5.68;;;5.18;;
40623;SDS011;26325;48.594;11.650;2023-07-08T05:50:56;5.47;;;5.05;;
40623;SDS011;26325;48.594;11.650;2023-07-08T05:53:22;4.72;;;4.43;;
40623;SDS011;26325;48.594;11.650;2023-07-08T05:55:50;4.90;;;4.50;;
40623;SDS011;26325;48.594;11.650;2023-07-08T05:58:18;4.68;;;4.38;;
40623;SDS011;26325;48.594;11.650;2023-07-08T06:00:44;5.28;;;4.78;;
40623;SDS011;26325;48.594;11.650;2023-07-08T06:03:12;4.47;;;4.18;;
40623;SDS011;26325;48.594;11.650;2023-07-08T06:05:38;5.05;;;4.65;;
40623;SDS011;26325;48.594;11.650;2023-07-08T06:08:06;5.65;;;5.18;;
40623;SDS011;26325;48.594;11.650;2023-07-08T06:10:32;5.57;;;5.10;;
40623;SDS011;26325;48.594;11.650;2023-07-08T06:12:58;5.72;;;5.22;;
40623;SDS011;26325;48.594;11.650;2023-07-08T06:15:23;5.50;;;5.10;;
40623;SDS011;26325;48.594;11.650;2023-07-08T06:17:51;5.72;;;5.30;;
40623;SDS011;26325;48.594;11.650;2023-07-08T06:20:17;5.28;;;4.78;;
40623;SDS011;26325;48.594;11.650;2023-07-08T06:22:45;5.20;;;4.80;;
40623;SDS011;26325;48.594;11.650;2023-07-08T06:25:10;5.70;;;5.22;;
40623;SDS011;26325;48.594;11.650;2023-07-08T06:27:36;6.60;;;5.38;;
40623;SDS011;26325;48.594;11.650;2023-07-08T06:30:02;6.15;;;5.32;;
40623;SDS011;26325;48.594;11.650;2023-07-08T06:32:28;6.18;;;5.65;;
40623;SDS011;26325;48.594;11.650;2023-07-08T06:34:53;6.82;;;6.22;;
40623;SDS011;26325;48.594;11.650;2023-07-08T06:37:19;5.57;;;5.07;;
40623;SDS011;26325;48.594;11.650;2023-07-08T06:39:44;6.00;;;5.50;;
40623;SDS011;26325;48.594;11.650;2023-07-08T06:42:10;6.18;;;5.57;;
40623;SDS011;26325;48.594;11.650;2023-07-08T06:44:38;5.50;;;5.10;;
40623;SDS011;26325;48.594;11.650;2023-07-08T06:47:03;5.72;;;5.00;;
40623;SDS011;26325;48.594;11.650;2023-07-08T06:49:29;5.80;;;5.30;;
40623;SDS011;26325;48.594;11.650;2023-07-08T06:51:57;5.65;;;5.15;;
40623;SDS011;26325;48.594;11.650;2023-07-08T06:54:25;5.80;;;5.35;;
40623;SDS011;26325;48.594;11.650;2023-07-08T06:56:50;5.53;;;5.03;;
40623;SDS011;26325;48.594;11.650;2023-07-08T06:59:18;5.50;;;5.10;;
40623;SDS011;26325;48.594;11.650;2023-07-08T07:01:44;5.35;;;4.95;;
40623;SDS011;26325;48.594;11.650;2023-07-08T07:04:11;6.00;;;5.43;;
40623;SDS011;26325;48.594;11.650;2023-07-08T07:06:37;5.75;;;5.35;;
40623;SDS011;26325;48.594;11.650;2023-07-08T07:09:03;5.65;;;5.13;;
40623;SDS011;26325;48.594;11.650;2023-07-08T07:11:28;6.15;;;5.55;;
40623;SDS011;26325;48.594;11.650;2023-07-08T07:13:56;5.75;;;5.13;;
40623;SDS011;26325;48.594;11.650;2023-07-08T07:16:24;5.38;;;4.93;;
40623;SDS011;26325;48.594;11.650;2023-07-08T07:18:50;5.72;;;5.20;;
40623;SDS011;26325;48.594;11.650;2023-07-08T07:21:17;6.40;;;5.80;;
40623;SDS011;26325;48.594;11.650;2023-07-08T07:23:43;6.15;;;5.63;;
40623;SDS011;26325;48.594;11.650;2023-07-08T07:26:10;6.15;;;5.55;;
40623;SDS011;26325;48.594;11.650;2023-07-08T07:28:36;7.13;;;5.60;;
40623;SDS011;26325;48.594;11.650;2023-07-08T07:31:03;5.60;;;5.20;;
40623;SDS011;26325;48.594;11.650;2023-07-08T07:33:31;5.60;;;5.10;;
40623;SDS011;26325;48.594;11.650;2023-07-08T07:36:02;5.95;;;5.53;;
40623;SDS011;26325;48.594;11.650;2023-07-08T07:38:27;6.20;;;5.70;;
40623;SDS011;26325;48.594;11.650;2023-07-08T07:41:14;5.83;;;5.33;;
40623;SDS011;26325;48.594;11.650;2023-07-08T07:43:40;5.68;;;5.28;;
40623;SDS011;26325;48.594;11.650;2023-07-08T07:46:08;6.10;;;5.50;;
40623;SDS011;26325;48.594;11.650;2023-07-08T07:48:36;6.40;;;5.80;;
40623;SDS011;26325;48.594;11.650;2023-07-08T07:51:04;5.80;;;5.30;;
40623;SDS011;26325;48.594;11.650;2023-07-08T07:53:32;6.20;;;5.70;;
40623;SDS011;26325;48.594;11.650;2023-07-08T07:55:59;5.68;;;5.25;;
40623;SDS011;26325;48.594;11.650;2023-07-08T07:58:29;5.65;;;5.25;;
40623;SDS011;26325;48.594;11.650;2023-07-08T08:00:58;5.70;;;5.20;;
40623;SDS011;26325;48.594;11.650;2023-07-08T08:03:24;6.82;;;5.60;;
40623;SDS011;26325;48.594;11.650;2023-07-08T08:05:52;6.28;;;5.72;;
40623;SDS011;26325;48.594;11.650;2023-07-08T08:08:20;6.38;;;5.78;;
40623;SDS011;26325;48.594;11.650;2023-07-08T08:10:50;5.15;;;4.68;;
40623;SDS011;26325;48.594;11.650;2023-07-08T08:13:16;6.93;;;6.10;;
40623;SDS011;26325;48.594;11.650;2023-07-08T08:15:41;6.53;;;5.43;;
40623;SDS011;26325;48.594;11.650;2023-07-08T08:18:09;8.77;;;6.07;;
40623;SDS011;26325;48.594;11.650;2023-07-08T08:20:34;5.72;;;5.30;;
40623;SDS011;26325;48.594;11.650;2023-07-08T08:23:00;10.75;;;6.20;;
40623;SDS011;26325;48.594;11.650;2023-07-08T08:25:30;5.78;;;5.28;;
40623;SDS011;26325;48.594;11.650;2023-07-08T08:27:56;6.13;;;5.63;;
40623;SDS011;26325;48.594;11.650;2023-07-08T08:30:22;5.85;;;5.35;;
40623;SDS011;26325;48.594;11.650;2023-07-08T08:32:49;6.05;;;5.45;;
40623;SDS011;26325;48.594;11.650;2023-07-08T08:35:14;6.22;;;5.72;;
40623;SDS011;26325;48.594;11.650;2023-07-08T08:37:40;7.40;;;5.40;;
40623;SDS011;26325;48.594;11.650;2023-07-08T08:40:11;5.97;;;5.47;;
40623;SDS011;26325;48.594;11.650;2023-07-08T08:42:43;6.10;;;5.60;;
40623;SDS011;26325;48.594;11.650;2023-07-08T08:45:16;6.47;;;5.97;;
40623;SDS011;26325;48.594;11.650;2023-07-08T08:47:44;5.30;;;4.90;;
40623;SDS011;26325;48.594;11.650;2023-07-08T08:53:01;5.10;;;4.80;;
40623;SDS011;26325;48.594;11.650;2023-07-08T08:55:29;5.68;;;5.28;;
40623;SDS011;26325;48.594;11.650;2023-07-08T09:00:44;6.95;;;5.70;;
40623;SDS011;26325;48.594;11.650;2023-07-08T09:06:33;6.00;;;5.50;;
40623;SDS011;26325;48.594;11.650;2023-07-08T09:09:19;5.90;;;5.38;;
40623;SDS011;26325;48.594;11.650;2023-07-08T09:12:04;6.03;;;5.57;;
40623;SDS011;26325;48.594;11.650;2023-07-08T09:14:33;6.15;;;5.50;;
40623;SDS011;26325;48.594;11.650;2023-07-08T09:17:23;5.68;;;5.28;;
40623;SDS011;26325;48.594;11.650;2023-07-08T09:22:41;6.00;;;5.50;;
40623;SDS011;26325;48.594;11.650;2023-07-08T09:28:01;7.35;;;5.53;;
40623;SDS011;26325;48.594;11.650;2023-07-08T09:30:27;5.80;;;5.35;;
40623;SDS011;26325;48.594;11.650;2023-07-08T09:33:02;6.43;;;5.75;;
40623;SDS011;26325;48.594;11.650;2023-07-08T09:35:41;6.07;;;5.68;;
40623;SDS011;26325;48.594;11.650;2023-07-08T09:38:17;6.63;;;6.13;;
40623;SDS011;26325;48.594;11.650;2023-07-08T09:40:47;6.90;;;6.30;;
40623;SDS011;26325;48.594;11.650;2023-07-08T09:43:33;6.10;;;5.60;;
40623;SDS011;26325;48.594;11.650;2023-07-08T09:46:11;6.50;;;6.00;;
40623;SDS011;26325;48.594;11.650;2023-07-08T09:48:38;6.28;;;5.78;;
40623;SDS011;26325;48.594;11.650;2023-07-08T09:51:05;6.38;;;5.88;;
40623;SDS011;26325;48.594;11.650;2023-07-08T09:53:34;6.38;;;5.90;;
40623;SDS011;26325;48.594;11.650;2023-07-08T09:56:04;6.18;;;5.68;;
40623;SDS011;26325;48.594;11.650;2023-07-08T09:58:39;6.38;;;5.88;;
40623;SDS011;26325;48.594;11.650;2023-07-08T10:01:25;6.43;;;5.93;;
40623;SDS011;26325;48.594;11.650;2023-07-08T10:03:58;6.82;;;5.95;;
40623;SDS011;26325;48.594;11.650;2023-07-08T10:06:29;6.40;;;5.90;;
40623;SDS011;26325;48.594;11.650;2023-07-08T10:39:18;37.85;;;35.28;;
40623;SDS011;26325;48.594;11.650;2023-07-08T10:47:40;29.67;;;27.70;;
40623;SDS011;26325;48.594;11.650;2023-07-08T10:56:20;14.52;;;13.38;;
40623;SDS011;26325;48.594;11.650;2023-07-08T11:07:38;8.90;;;8.35;;
40623;SDS011;26325;48.594;11.650;2023-07-08T11:13:13;7.90;;;7.30;;
40623;SDS011;26325;48.594;11.650;2023-07-08T11:15:54;8.05;;;7.45;;
40623;SDS011;26325;48.594;11.650;2023-07-08T11:18:45;14.43;;;13.25;;
40623;SDS011;26325;48.594;11.650;2023-07-08T11:24:15;8.57;;;7.85;;
40623;SDS011;26325;48.594;11.650;2023-07-08T11:30:12;9.73;;;8.88;;
40623;SDS011;26325;48.594;11.650;2023-07-08T11:32:42;14.43;;;13.38;;
40623;SDS011;26325;48.594;11.650;2023-07-08T11:35:19;27.33;;;24.92;;
40623;SDS011;26325;48.594;11.650;2023-07-08T11:37:51;15.40;;;14.30;;
40623;SDS011;26325;48.594;11.650;2023-07-08T11:42:51;11.52;;;10.82;;
40623;SDS011;26325;48.594;11.650;2023-07-08T11:47:47;7.70;;;7.20;;
40623;SDS011;26325;48.594;11.650;2023-07-08T11:50:22;9.52;;;8.65;;
40623;SDS011;26325;48.594;11.650;2023-07-08T11:53:01;7.55;;;7.05;;
40623;SDS011;26325;48.594;11.650;2023-07-08T12:00:59;8.55;;;7.85;;
40623;SDS011;26325;48.594;11.650;2023-07-08T12:06:02;8.10;;;7.60;;
40623;SDS011;26325;48.594;11.650;2023-07-08T12:08:48;7.60;;;7.10;;
40623;SDS011;26325;48.594;11.650;2023-07-08T12:11:13;6.32;;;5.93;;
40623;SDS011;26325;48.594;11.650;2023-07-08T12:13:39;7.22;;;6.70;;
40623;SDS011;26325;48.594;11.650;2023-07-08T12:16:11;7.97;;;7.40;;
40623;SDS011;26325;48.594;11.650;2023-07-08T12:18:38;6.97;;;6.50;;
40623;SDS011;26325;48.594;11.650;2023-07-08T12:21:11;8.07;;;7.47;;
40623;SDS011;26325;48.594;11.650;2023-07-08T12:23:44;6.97;;;6.57;;
40623;SDS011;26325;48.594;11.650;2023-07-08T12:26:11;6.90;;;6.40;;
40623;SDS011;26325;48.594;11.650;2023-07-08T12:28:41;7.43;;;6.93;;
40623;SDS011;26325;48.594;11.650;2023-07-08T12:31:15;8.25;;;7.50;;
40623;SDS011;26325;48.594;11.650;2023-07-08T12:33:49;7.78;;;7.28;;
40623;SDS011;26325;48.594;11.650;2023-07-08T12:36:24;7.03;;;6.53;;
40623;SDS011;26325;48.594;11.650;2023-07-08T12:38:53;7.53;;;6.85;;
40623;SDS011;26325;48.594;11.650;2023-07-08T12:41:23;7.40;;;6.90;;
40623;SDS011;26325;48.594;11.650;2023-07-08T12:43:51;7.20;;;6.70;;
40623;SDS011;26325;48.594;11.650;2023-07-08T12:46:21;7.28;;;6.80;;
40623;SDS011;26325;48.594;11.650;2023-07-08T12:48:47;7.53;;;7.03;;
40623;SDS011;26325;48.594;11.650;2023-07-08T12:51:20;7.60;;;7.00;;
40623;SDS011;26325;48.594;11.650;2023-07-08T12:53:51;7.10;;;6.70;;
40623;SDS011;26325;48.594;11.650;2023-07-08T12:56:19;8.07;;;7.50;;
40623;SDS011;26325;48.594;11.650;2023-07-08T12:58:50;6.80;;;6.40;;
40623;SDS011;26325;48.594;11.650;2023-07-08T13:01:24;7.60;;;7.00;;
40623;SDS011;26325;48.594;11.650;2023-07-08T13:03:53;7.30;;;6.80;;
40623;SDS011;26325;48.594;11.650;2023-07-08T13:06:25;7.38;;;6.88;;
40623;SDS011;26325;48.594;11.650;2023-07-08T13:08:56;7.00;;;6.57;;
40623;SDS011;26325;48.594;11.650;2023-07-08T13:11:27;7.57;;;6.97;;
40623;SDS011;26325;48.594;11.650;2023-07-08T13:13:57;7.68;;;6.90;;
40623;SDS011;26325;48.594;11.650;2023-07-08T13:16:31;7.32;;;6.72;;
40623;SDS011;26325;48.594;11.650;2023-07-08T13:18:59;7.47;;;6.80;;
40623;SDS011;26325;48.594;11.650;2023-07-08T13:21:26;7.18;;;6.63;;
40623;SDS011;26325;48.594;11.650;2023-07-08T13:23:55;6.95;;;6.55;;
40623;SDS011;26325;48.594;11.650;2023-07-08T13:26:25;6.80;;;6.30;;
40623;SDS011;26325;48.594;11.650;2023-07-08T13:29:04;6.72;;;6.22;;
40623;SDS011;26325;48.594;11.650;2023-07-08T13:31:38;7.10;;;6.50;;
40623;SDS011;26325;48.594;11.650;2023-07-08T13:34:17;6.97;;;6.47;;
40623;SDS011;26325;48.594;11.650;2023-07-08T13:36:46;6.65;;;6.15;;
40623;SDS011;26325;48.594;11.650;2023-07-08T13:39:20;6.32;;;5.93;;
40623;SDS011;26325;48.594;11.650;2023-07-08T13:41:51;6.63;;;6.13;;
40623;SDS011;26325;48.594;11.650;2023-07-08T13:44:16;6.55;;;6.05;;
40623;SDS011;26325;48.594;11.650;2023-07-08T13:46:53;6.93;;;6.43;;
40623;SDS011;26325;48.594;11.650;2023-07-08T13:49:27;6.35;;;5.88;;
40623;SDS011;26325;48.594;11.650;2023-07-08T13:52:13;6.50;;;6.00;;
40623;SDS011;26325;48.594;11.650;2023-07-08T13:54:52;6.13;;;5.72;;
40623;SDS011;26325;48.594;11.650;2023-07-08T13:57:27;6.18;;;5.78;;
40623;SDS011;26325;48.594;11.650;2023-07-08T14:00:04;7.00;;;6.30;;
40623;SDS011;26325;48.594;11.650;2023-07-08T14:02:32;6.18;;;5.78;;
40623;SDS011;26325;48.594;11.650;2023-07-08T14:05:01;6.28;;;5.88;;
40623;SDS011;26325;48.594;11.650;2023-07-08T14:07:30;5.75;;;5.40;;
40623;SDS011;26325;48.594;11.650;2023-07-08T14:09:58;6.22;;;5.82;;
40623;SDS011;26325;48.594;11.650;2023-07-08T14:12:23;6.20;;;5.80;;
40623;SDS011;26325;48.594;11.650;2023-07-08T14:14:50;6.55;;;6.10;;
40623;SDS011;26325;48.594;11.650;2023-07-08T14:17:21;6.57;;;6.07;;
40623;SDS011;26325;48.594;11.650;2023-07-08T14:19:49;6.55;;;5.95;;
40623;SDS011;26325;48.594;11.650;2023-07-08T14:22:29;6.88;;;6.45;;
40623;SDS011;26325;48.594;11.650;2023-07-08T14:24:58;6.80;;;6.20;;
40623;SDS011;26325;48.594;11.650;2023-07-08T14:27:29;6.70;;;6.20;;
40623;SDS011;26325;48.594;11.650;2023-07-08T14:29:55;7.32;;;6.68;;
40623;SDS011;26325;48.594;11.650;2023-07-08T14:32:27;6.97;;;6.57;;
40623;SDS011;26325;48.594;11.650;2023-07-08T14:35:28;7.20;;;6.70;;
40623;SDS011;26325;48.594;11.650;2023-07-08T14:37:54;7.47;;;6.97;;
40623;SDS011;26325;48.594;11.650;2023-07-08T14:40:29;6.15;;;5.75;;
40623;SDS011;26325;48.594;11.650;2023-07-08T14:42:59;6.28;;;5.88;;
40623;SDS011;26325;48.594;11.650;2023-07-08T14:45:29;6.38;;;5.80;;
40623;SDS011;26325;48.594;11.650;2023-07-08T14:47:58;6.63;;;6.22;;
40623;SDS011;26325;48.594;11.650;2023-07-08T14:50:24;6.32;;;5.82;;
40623;SDS011;26325;48.594;11.650;2023-07-08T14:52:51;6.50;;;5.90;;
40623;SDS011;26325;48.594;11.650;2023-07-08T14:55:21;6.88;;;6.28;;
40623;SDS011;26325;48.594;11.650;2023-07-08T14:57:47;6.25;;;5.65;;
40623;SDS011;26325;48.594;11.650;2023-07-08T15:00:16;6.53;;;5.95;;
40623;SDS011;26325;48.594;11.650;2023-07-08T15:02:44;6.03;;;5.63;;
40623;SDS011;26325;48.594;11.650;2023-07-08T15:05:15;6.57;;;6.07;;
40623;SDS011;26325;48.594;11.650;2023-07-08T15:07:43;5.72;;;5.40;;
40623;SDS011;26325;48.594;11.650;2023-07-08T15:10:09;6.25;;;5.85;;
40623;SDS011;26325;48.594;11.650;2023-07-08T15:12:35;6.35;;;5.85;;
40623;SDS011;26325;48.594;11.650;2023-07-08T15:15:03;6.20;;;5.70;;
40623;SDS011;26325;48.594;11.650;2023-07-08T15:17:29;6.30;;;5.90;;
40623;SDS011;26325;48.594;11.650;2023-07-08T15:19:55;6.43;;;6.00;;
40623;SDS011;26325;48.594;11.650;2023-07-08T15:22:23;5.90;;;5.40;;
40623;SDS011;26325;48.594;11.650;2023-07-08T15:24:48;5.85;;;5.35;;
40623;SDS011;26325;48.594;11.650;2023-07-08T15:27:14;6.15;;;5.70;;
40623;SDS011;26325;48.594;11.650;2023-07-08T15:29:47;6.13;;;5.63;;
40623;SDS011;26325;48.594;11.650;2023-07-08T15:32:16;6.38;;;5.97;;
40623;SDS011;26325;48.594;11.650;2023-07-08T15:34:44;6.13;;;5.63;;
40623;SDS011;26325;48.594;11.650;2023-07-08T15:37:10;5.65;;;5.35;;
40623;SDS011;26325;48.594;11.650;2023-07-08T15:39:39;6.00;;;5.60;;
40623;SDS011;26325;48.594;11.650;2023-07-08T15:42:07;5.82;;;5.43;;
40623;SDS011;26325;48.594;11.650;2023-07-08T15:44:36;5.63;;;5.20;;
40623;SDS011;26325;48.594;11.650;2023-07-08T15:47:05;5.95;;;5.55;;
40623;SDS011;26325;48.594;11.650;2023-07-08T15:49:34;5.70;;;5.30;;
40623;SDS011;26325;48.594;11.650;2023-07-08T15:52:00;5.90;;;5.40;;
40623;SDS011;26325;48.594;11.650;2023-07-08T15:54:25;6.13;;;5.63;;
40623;SDS011;26325;48.594;11.650;2023-07-08T15:56:52;5.40;;;5.03;;
40623;SDS011;26325;48.594;11.650;2023-07-08T15:59:24;5.70;;;5.30;;
40623;SDS011;26325;48.594;11.650;2023-07-08T16:01:53;5.60;;;5.20;;
40623;SDS011;26325;48.594;11.650;2023-07-08T16:04:25;5.72;;;5.22;;
40623;SDS011;26325;48.594;11.650;2023-07-08T16:06:58;5.80;;;5.40;;
40623;SDS011;26325;48.594;11.650;2023-07-08T16:09:26;5.65;;;5.20;;
40623;SDS011;26325;48.594;11.650;2023-07-08T16:11:53;5.93;;;5.53;;
40623;SDS011;26325;48.594;11.650;2023-07-08T16:14:19;6.32;;;5.72;;
40623;SDS011;26325;48.594;11.650;2023-07-08T16:16:45;5.40;;;5.00;;
40623;SDS011;26325;48.594;11.650;2023-07-08T16:19:12;5.80;;;5.25;;
40623;SDS011;26325;48.594;11.650;2023-07-08T16:21:39;5.70;;;5.30;;
40623;SDS011;26325;48.594;11.650;2023-07-08T16:24:06;5.65;;;5.20;;
40623;SDS011;26325;48.594;11.650;2023-07-08T16:26:32;6.03;;;5.40;;
40623;SDS011;26325;48.594;11.650;2023-07-08T16:28:59;5.28;;;4.88;;
40623;SDS011;26325;48.594;11.650;2023-07-08T16:31:28;5.85;;;5.30;;
40623;SDS011;26325;48.594;11.650;2023-07-08T16:33:54;5.10;;;4.80;;
40623;SDS011;26325;48.594;11.650;2023-07-08T16:36:27;5.70;;;5.30;;
40623;SDS011;26325;48.594;11.650;2023-07-08T16:38:53;5.60;;;5.20;;
40623;SDS011;26325;48.594;11.650;2023-07-08T16:41:25;6.18;;;5.57;;
40623;SDS011;26325;48.594;11.650;2023-07-08T16:43:58;5.45;;;5.05;;
40623;SDS011;26325;48.594;11.650;2023-07-08T16:46:23;4.97;;;4.57;;
40623;SDS011;26325;48.594;11.650;2023-07-08T16:48:49;5.03;;;4.63;;
40623;SDS011;26325;48.594;11.650;2023-07-08T16:51:21;5.35;;;4.95;;
40623;SDS011;26325;48.594;11.650;2023-07-08T16:53:50;5.30;;;4.88;;
40623;SDS011;26325;48.594;11.650;2023-07-08T16:56:22;5.50;;;5.10;;